sensor_id;sensor_type;location;lat;lon;timestamp;P1;durP1;ratioP1;P2;durP2;ratioP2
2488;SDS011;1255;48.716;9.124;2024-03-23T00:52:49;2.33;;;2.08;;
2488;SDS011;1255;48.716;9.124;2024-03-23T00:55:15;3.13;;;2.15;;
2488;SDS011;1255;48.716;9.124;2024-03-23T00:57:41;2.30;;;1.73;;
2488;SDS011;1255;48.716;9.124;2024-03-23T01:00:07;2.13;;;1.90;;
2488;SDS011;1255;48.716;9.124;2024-03-23T01:02:35;3.00;;;1.70;;
2488;SDS011;1255;48.716;9.124;2024-03-23T01:05:01;3.05;;;2.15;;
2488;SDS011;1255;48.716;9.124;2024-03-23T01:07:28;3.75;;;1.98;;
2488;SDS011;1255;48.716;9.124;2024-03-23T01:09:55;1.83;;;1.70;;
2488;SDS011;1255;48.716;9.124;2024-03-23T01:12:22;2.75;;;1.90;;
2488;SDS011;1255;48.716;9.124;2024-03-23T01:14:48;3.00;;;2.07;;
2488;SDS011;1255;48.716;9.124;2024-03-23T01:17:14;2.10;;;1.90;;
2488;SDS011;1255;48.716;9.124;2024-03-23T01:19:40;2.27;;;1.70;;
2488;SDS011;1255;48.716;9.124;2024-03-23T01:22:07;4.15;;;1.92;;
2488;SDS011;1255;48.716;9.124;2024-03-23T01:24:35;2.42;;;1.50;;
2488;SDS011;1255;48.716;9.124;2024-03-23T01:27:03;1.90;;;1.80;;
2488;SDS011;1255;48.716;9.124;2024-03-23T01:29:29;2.20;;;2.00;;
2488;SDS011;1255;48.716;9.124;2024-03-23T01:31:56;2.40;;;2.20;;
2488;SDS011;1255;48.716;9.124;2024-03-23T01:34:21;2.90;;;2.07;;
2488;SDS011;1255;48.716;9.124;2024-03-23T01:36:49;2.00;;;1.80;;
2488;SDS011;1255;48.716;9.124;2024-03-23T01:39:15;2.60;;;2.03;;
2488;SDS011;1255;48.716;9.124;2024-03-23T01:41:42;1.50;;;1.40;;
2488;SDS011;1255;48.716;9.124;2024-03-23T01:44:09;2.47;;;1.80;;
2488;SDS011;1255;48.716;9.124;2024-03-23T01:46:36;2.13;;;1.92;;
2488;SDS011;1255;48.716;9.124;2024-03-23T01:49:03;3.05;;;1.88;;
2488;SDS011;1255;48.716;9.124;2024-03-23T01:51:30;2.40;;;1.95;;
2488;SDS011;1255;48.716;9.124;2024-03-23T01:53:57;2.25;;;1.75;;
2488;SDS011;1255;48.716;9.124;2024-03-23T01:56:25;2.95;;;2.13;;
2488;SDS011;1255;48.716;9.124;2024-03-23T01:58:51;2.70;;;2.27;;
2488;SDS011;1255;48.716;9.124;2024-03-23T02:01:19;3.60;;;1.75;;
2488;SDS011;1255;48.716;9.124;2024-03-23T02:03:46;2.88;;;2.25;;
2488;SDS011;1255;48.716;9.124;2024-03-23T02:06:12;1.77;;;1.67;;
2488;SDS011;1255;48.716;9.124;2024-03-23T02:08:38;2.27;;;2.00;;
2488;SDS011;1255;48.716;9.124;2024-03-23T02:11:06;1.98;;;1.77;;
2488;SDS011;1255;48.716;9.124;2024-03-23T02:13:31;2.47;;;2.27;;
2488;SDS011;1255;48.716;9.124;2024-03-23T02:15:58;1.85;;;1.63;;
2488;SDS011;1255;48.716;9.124;2024-03-23T02:18:25;1.87;;;1.67;;
2488;SDS011;1255;48.716;9.124;2024-03-23T02:20:52;1.95;;;1.65;;
2488;SDS011;1255;48.716;9.124;2024-03-23T02:23:19;3.13;;;2.33;;
2488;SDS011;1255;48.716;9.124;2024-03-23T02:25:46;2.47;;;1.85;;
2488;SDS011;1255;48.716;9.124;2024-03-23T02:28:12;1.77;;;1.67;;
2488;SDS011;1255;48.716;9.124;2024-03-23T02:30:38;1.80;;;1.40;;
2488;SDS011;1255;48.716;9.124;2024-03-23T02:33:04;2.07;;;1.83;;
2488;SDS011;1255;48.716;9.124;2024-03-23T02:35:31;3.05;;;1.60;;
2488;SDS011;1255;48.716;9.124;2024-03-23T02:37:58;4.10;;;2.08;;
2488;SDS011;1255;48.716;9.124;2024-03-23T02:40:28;2.20;;;1.88;;
2488;SDS011;1255;48.716;9.124;2024-03-23T02:42:53;2.15;;;1.90;;
2488;SDS011;1255;48.716;9.124;2024-03-23T02:45:20;2.15;;;1.95;;
2488;SDS011;1255;48.716;9.124;2024-03-23T02:47:46;2.67;;;1.73;;
2488;SDS011;1255;48.716;9.124;2024-03-23T02:50:16;2.75;;;1.80;;
2488;SDS011;1255;48.716;9.124;2024-03-23T02:52:42;2.03;;;1.80;;
2488;SDS011;1255;48.716;9.124;2024-03-23T02:55:09;2.10;;;1.90;;
2488;SDS011;1255;48.716;9.124;2024-03-23T02:57:36;3.40;;;1.80;;
2488;SDS011;1255;48.716;9.124;2024-03-23T03:00:03;2.75;;;1.90;;
2488;SDS011;1255;48.716;9.124;2024-03-23T03:02:31;4.32;;;2.60;;
2488;SDS011;1255;48.716;9.124;2024-03-23T03:04:58;1.80;;;1.65;;
2488;SDS011;1255;48.716;9.124;2024-03-23T03:07:24;3.27;;;1.93;;
2488;SDS011;1255;48.716;9.124;2024-03-23T03:09:50;2.22;;;1.50;;
2488;SDS011;1255;48.716;9.124;2024-03-23T03:12:16;3.20;;;1.83;;
2488;SDS011;1255;48.716;9.124;2024-03-23T03:14:44;2.35;;;1.80;;
2488;SDS011;1255;48.716;9.124;2024-03-23T03:17:10;2.47;;;2.25;;
2488;SDS011;1255;48.716;9.124;2024-03-23T03:19:36;2.70;;;2.20;;
2488;SDS011;1255;48.716;9.124;2024-03-23T03:22:02;1.93;;;1.80;;
2488;SDS011;1255;48.716;9.124;2024-03-23T03:24:29;2.40;;;1.80;;
2488;SDS011;1255;48.716;9.124;2024-03-23T03:26:55;1.70;;;1.60;;
2488;SDS011;1255;48.716;9.124;2024-03-23T03:29:22;3.72;;;1.77;;
2488;SDS011;1255;48.716;9.124;2024-03-23T03:31:49;2.20;;;2.00;;
2488;SDS011;1255;48.716;9.124;2024-03-23T03:34:16;3.90;;;1.95;;
2488;SDS011;1255;48.716;9.124;2024-03-23T03:36:42;2.00;;;1.80;;
2488;SDS011;1255;48.716;9.124;2024-03-23T03:39:08;3.53;;;1.90;;
2488;SDS011;1255;48.716;9.124;2024-03-23T03:41:35;3.55;;;2.15;;
2488;SDS011;1255;48.716;9.124;2024-03-23T03:44:01;2.00;;;1.67;;
2488;SDS011;1255;48.716;9.124;2024-03-23T03:46:27;2.33;;;2.13;;
2488;SDS011;1255;48.716;9.124;2024-03-23T03:48:55;2.38;;;2.00;;
2488;SDS011;1255;48.716;9.124;2024-03-23T03:51:21;2.30;;;1.83;;
2488;SDS011;1255;48.716;9.124;2024-03-23T03:53:48;3.10;;;2.00;;
2488;SDS011;1255;48.716;9.124;2024-03-23T03:56:13;2.00;;;1.73;;
2488;SDS011;1255;48.716;9.124;2024-03-23T03:58:40;2.75;;;1.65;;
2488;SDS011;1255;48.716;9.124;2024-03-23T04:01:06;2.20;;;2.00;;
2488;SDS011;1255;48.716;9.124;2024-03-23T04:03:32;2.10;;;1.90;;
2488;SDS011;1255;48.716;9.124;2024-03-23T04:06:00;2.30;;;2.10;;
2488;SDS011;1255;48.716;9.124;2024-03-23T04:08:28;3.25;;;2.35;;
2488;SDS011;1255;48.716;9.124;2024-03-23T04:10:54;4.00;;;2.30;;
2488;SDS011;1255;48.716;9.124;2024-03-23T04:13:20;2.20;;;2.00;;
2488;SDS011;1255;48.716;9.124;2024-03-23T04:15:46;2.80;;;1.70;;
2488;SDS011;1255;48.716;9.124;2024-03-23T04:18:13;1.98;;;1.77;;
2488;SDS011;1255;48.716;9.124;2024-03-23T04:20:39;2.17;;;1.98;;
2488;SDS011;1255;48.716;9.124;2024-03-23T04:23:07;1.70;;;1.60;;
2488;SDS011;1255;48.716;9.124;2024-03-23T04:25:33;3.30;;;1.83;;
2488;SDS011;1255;48.716;9.124;2024-03-23T04:28:00;3.50;;;2.38;;
2488;SDS011;1255;48.716;9.124;2024-03-23T04:30:25;2.17;;;1.90;;
2488;SDS011;1255;48.716;9.124;2024-03-23T04:32:54;2.58;;;2.17;;
2488;SDS011;1255;48.716;9.124;2024-03-23T04:35:19;2.07;;;1.87;;
2488;SDS011;1255;48.716;9.124;2024-03-23T04:37:47;2.80;;;1.80;;
2488;SDS011;1255;48.716;9.124;2024-03-23T04:40:15;2.58;;;1.52;;
2488;SDS011;1255;48.716;9.124;2024-03-23T04:42:42;2.03;;;1.83;;
2488;SDS011;1255;48.716;9.124;2024-03-23T04:45:08;3.72;;;2.10;;
2488;SDS011;1255;48.716;9.124;2024-03-23T04:47:36;2.20;;;2.00;;
2488;SDS011;1255;48.716;9.124;2024-03-23T04:50:04;2.10;;;1.90;;
2488;SDS011;1255;48.716;9.124;2024-03-23T04:52:31;2.33;;;2.10;;
2488;SDS011;1255;48.716;9.124;2024-03-23T04:54:57;2.40;;;2.20;;
2488;SDS011;1255;48.716;9.124;2024-03-23T04:57:25;3.97;;;2.55;;
2488;SDS011;1255;48.716;9.124;2024-03-23T04:59:50;2.30;;;2.10;;
2488;SDS011;1255;48.716;9.124;2024-03-23T05:02:17;4.72;;;2.80;;
2488;SDS011;1255;48.716;9.124;2024-03-23T05:04:43;3.13;;;2.90;;
2488;SDS011;1255;48.716;9.124;2024-03-23T05:07:10;4.97;;;3.47;;
2488;SDS011;1255;48.716;9.124;2024-03-23T05:09:36;6.90;;;3.53;;
2488;SDS011;1255;48.716;9.124;2024-03-23T05:12:03;5.60;;;4.20;;
2488;SDS011;1255;48.716;9.124;2024-03-23T05:14:30;6.45;;;4.65;;
2488;SDS011;1255;48.716;9.124;2024-03-23T05:16:57;5.10;;;4.03;;
2488;SDS011;1255;48.716;9.124;2024-03-23T05:19:23;6.17;;;4.93;;
2488;SDS011;1255;48.716;9.124;2024-03-23T05:21:50;6.30;;;4.63;;
2488;SDS011;1255;48.716;9.124;2024-03-23T05:24:15;8.30;;;4.93;;
2488;SDS011;1255;48.716;9.124;2024-03-23T05:26:42;6.78;;;4.63;;
2488;SDS011;1255;48.716;9.124;2024-03-23T05:29:08;5.53;;;4.70;;
2488;SDS011;1255;48.716;9.124;2024-03-23T05:31:37;8.20;;;5.25;;
2488;SDS011;1255;48.716;9.124;2024-03-23T05:34:03;6.15;;;4.40;;
2488;SDS011;1255;48.716;9.124;2024-03-23T05:36:30;5.57;;;4.40;;
2488;SDS011;1255;48.716;9.124;2024-03-23T05:38:55;5.97;;;5.00;;
2488;SDS011;1255;48.716;9.124;2024-03-23T05:41:22;6.53;;;5.60;;
2488;SDS011;1255;48.716;9.124;2024-03-23T05:43:49;5.53;;;4.40;;
2488;SDS011;1255;48.716;9.124;2024-03-23T05:46:15;6.97;;;5.25;;
2488;SDS011;1255;48.716;9.124;2024-03-23T05:48:44;7.25;;;5.13;;
2488;SDS011;1255;48.716;9.124;2024-03-23T05:51:11;8.27;;;4.78;;
2488;SDS011;1255;48.716;9.124;2024-03-23T05:53:37;7.10;;;4.60;;
2488;SDS011;1255;48.716;9.124;2024-03-23T05:56:04;5.40;;;4.35;;
2488;SDS011;1255;48.716;9.124;2024-03-23T05:58:31;5.13;;;3.97;;
2488;SDS011;1255;48.716;9.124;2024-03-23T06:00:58;3.33;;;2.95;;
2488;SDS011;1255;48.716;9.124;2024-03-23T06:03:25;3.63;;;3.22;;
2488;SDS011;1255;48.716;9.124;2024-03-23T06:05:53;3.38;;;2.28;;
2488;SDS011;1255;48.716;9.124;2024-03-23T06:08:19;3.75;;;2.97;;
2488;SDS011;1255;48.716;9.124;2024-03-23T06:10:46;2.35;;;2.15;;
2488;SDS011;1255;48.716;9.124;2024-03-23T06:13:12;3.33;;;2.40;;
2488;SDS011;1255;48.716;9.124;2024-03-23T06:15:39;3.17;;;2.40;;
2488;SDS011;1255;48.716;9.124;2024-03-23T06:18:05;1.63;;;1.47;;
2488;SDS011;1255;48.716;9.124;2024-03-23T06:20:32;2.38;;;1.55;;
2488;SDS011;1255;48.716;9.124;2024-03-23T06:23:00;1.80;;;1.20;;
2488;SDS011;1255;48.716;9.124;2024-03-23T06:25:27;2.30;;;1.50;;
2488;SDS011;1255;48.716;9.124;2024-03-23T06:27:53;1.33;;;1.23;;
2488;SDS011;1255;48.716;9.124;2024-03-23T06:30:19;1.60;;;1.30;;
2488;SDS011;1255;48.716;9.124;2024-03-23T06:32:45;2.20;;;1.10;;
2488;SDS011;1255;48.716;9.124;2024-03-23T06:35:12;2.40;;;1.10;;
2488;SDS011;1255;48.716;9.124;2024-03-23T06:37:38;1.17;;;0.90;;
2488;SDS011;1255;48.716;9.124;2024-03-23T06:40:08;2.15;;;1.65;;
2488;SDS011;1255;48.716;9.124;2024-03-23T06:42:34;2.08;;;1.45;;
2488;SDS011;1255;48.716;9.124;2024-03-23T06:45:01;1.65;;;1.02;;
2488;SDS011;1255;48.716;9.124;2024-03-23T06:47:29;1.80;;;1.70;;
2488;SDS011;1255;48.716;9.124;2024-03-23T06:49:56;6.82;;;1.50;;
2488;SDS011;1255;48.716;9.124;2024-03-23T06:52:22;1.00;;;0.90;;
2488;SDS011;1255;48.716;9.124;2024-03-23T06:54:49;1.73;;;1.15;;
2488;SDS011;1255;48.716;9.124;2024-03-23T06:57:16;1.87;;;1.47;;
2488;SDS011;1255;48.716;9.124;2024-03-23T06:59:42;1.13;;;1.02;;
2488;SDS011;1255;48.716;9.124;2024-03-23T07:02:08;1.67;;;1.17;;
2488;SDS011;1255;48.716;9.124;2024-03-23T07:04:35;1.13;;;0.95;;
2488;SDS011;1255;48.716;9.124;2024-03-23T07:07:01;1.00;;;0.90;;
2488;SDS011;1255;48.716;9.124;2024-03-23T07:09:28;1.45;;;0.80;;
2488;SDS011;1255;48.716;9.124;2024-03-23T07:11:53;1.20;;;0.90;;
2488;SDS011;1255;48.716;9.124;2024-03-23T07:14:22;1.75;;;1.05;;
2488;SDS011;1255;48.716;9.124;2024-03-23T07:16:49;1.17;;;0.80;;
2488;SDS011;1255;48.716;9.124;2024-03-23T07:19:16;0.80;;;0.70;;
2488;SDS011;1255;48.716;9.124;2024-03-23T07:21:42;1.40;;;1.00;;
2488;SDS011;1255;48.716;9.124;2024-03-23T07:24:09;0.90;;;0.70;;
2488;SDS011;1255;48.716;9.124;2024-03-23T07:26:35;0.80;;;0.70;;
2488;SDS011;1255;48.716;9.124;2024-03-23T07:29:02;2.25;;;1.23;;
2488;SDS011;1255;48.716;9.124;2024-03-23T07:31:30;1.13;;;1.02;;
2488;SDS011;1255;48.716;9.124;2024-03-23T07:33:56;0.80;;;0.70;;
2488;SDS011;1255;48.716;9.124;2024-03-23T07:36:22;0.80;;;0.70;;
2488;SDS011;1255;48.716;9.124;2024-03-23T07:38:49;0.80;;;0.70;;
2488;SDS011;1255;48.716;9.124;2024-03-23T07:41:15;1.65;;;0.70;;
2488;SDS011;1255;48.716;9.124;2024-03-23T07:43:43;1.05;;;0.80;;
2488;SDS011;1255;48.716;9.124;2024-03-23T07:46:10;0.90;;;0.73;;
2488;SDS011;1255;48.716;9.124;2024-03-23T07:48:39;1.00;;;0.80;;
2488;SDS011;1255;48.716;9.124;2024-03-23T07:51:06;1.25;;;0.80;;
2488;SDS011;1255;48.716;9.124;2024-03-23T07:53:34;0.95;;;0.85;;
2488;SDS011;1255;48.716;9.124;2024-03-23T07:56:01;1.00;;;0.90;;
2488;SDS011;1255;48.716;9.124;2024-03-23T07:58:29;0.75;;;0.60;;
2488;SDS011;1255;48.716;9.124;2024-03-23T08:00:55;0.80;;;0.70;;
2488;SDS011;1255;48.716;9.124;2024-03-23T08:03:22;0.80;;;0.77;;
2488;SDS011;1255;48.716;9.124;2024-03-23T08:05:49;1.00;;;0.77;;
2488;SDS011;1255;48.716;9.124;2024-03-23T08:08:16;0.80;;;0.70;;
2488;SDS011;1255;48.716;9.124;2024-03-23T08:10:48;0.80;;;0.67;;
2488;SDS011;1255;48.716;9.124;2024-03-23T08:13:15;0.90;;;0.70;;
2488;SDS011;1255;48.716;9.124;2024-03-23T08:15:41;0.90;;;0.70;;
2488;SDS011;1255;48.716;9.124;2024-03-23T08:18:09;1.00;;;0.70;;
2488;SDS011;1255;48.716;9.124;2024-03-23T08:20:35;1.35;;;0.90;;
2488;SDS011;1255;48.716;9.124;2024-03-23T08:23:03;1.00;;;0.90;;
2488;SDS011;1255;48.716;9.124;2024-03-23T08:25:30;1.00;;;0.90;;
2488;SDS011;1255;48.716;9.124;2024-03-23T08:27:57;0.93;;;0.80;;
2488;SDS011;1255;48.716;9.124;2024-03-23T08:30:23;1.17;;;0.80;;
2488;SDS011;1255;48.716;9.124;2024-03-23T08:32:50;1.45;;;0.88;;
2488;SDS011;1255;48.716;9.124;2024-03-23T08:35:16;1.00;;;0.90;;
2488;SDS011;1255;48.716;9.124;2024-03-23T08:37:42;1.30;;;1.20;;
2488;SDS011;1255;48.716;9.124;2024-03-23T08:40:10;1.50;;;1.00;;
2488;SDS011;1255;48.716;9.124;2024-03-23T08:42:37;1.85;;;1.02;;
2488;SDS011;1255;48.716;9.124;2024-03-23T08:45:03;1.23;;;1.03;;
2488;SDS011;1255;48.716;9.124;2024-03-23T08:47:33;1.15;;;1.00;;
2488;SDS011;1255;48.716;9.124;2024-03-23T08:49:59;2.08;;;1.10;;
2488;SDS011;1255;48.716;9.124;2024-03-23T08:52:26;1.67;;;1.20;;
2488;SDS011;1255;48.716;9.124;2024-03-23T08:54:53;1.20;;;0.98;;
2488;SDS011;1255;48.716;9.124;2024-03-23T08:57:22;1.23;;;1.13;;
2488;SDS011;1255;48.716;9.124;2024-03-23T08:59:48;1.10;;;1.00;;
2488;SDS011;1255;48.716;9.124;2024-03-23T09:02:15;4.70;;;1.63;;
2488;SDS011;1255;48.716;9.124;2024-03-23T09:04:40;1.40;;;1.30;;
2488;SDS011;1255;48.716;9.124;2024-03-23T09:07:07;1.35;;;1.10;;
2488;SDS011;1255;48.716;9.124;2024-03-23T09:09:33;1.40;;;1.20;;
2488;SDS011;1255;48.716;9.124;2024-03-23T09:12:00;1.15;;;1.00;;
2488;SDS011;1255;48.716;9.124;2024-03-23T09:14:27;2.03;;;1.30;;
2488;SDS011;1255;48.716;9.124;2024-03-23T09:16:54;1.27;;;1.17;;
2488;SDS011;1255;48.716;9.124;2024-03-23T09:19:21;1.30;;;1.20;;
2488;SDS011;1255;48.716;9.124;2024-03-23T09:21:51;2.85;;;1.42;;
2488;SDS011;1255;48.716;9.124;2024-03-23T09:24:17;4.60;;;1.93;;
2488;SDS011;1255;48.716;9.124;2024-03-23T09:26:44;2.40;;;1.95;;
2488;SDS011;1255;48.716;9.124;2024-03-23T09:29:11;2.53;;;2.25;;
2488;SDS011;1255;48.716;9.124;2024-03-23T09:31:40;2.28;;;1.98;;
2488;SDS011;1255;48.716;9.124;2024-03-23T09:34:06;2.20;;;1.65;;
2488;SDS011;1255;48.716;9.124;2024-03-23T09:36:33;1.52;;;1.40;;
2488;SDS011;1255;48.716;9.124;2024-03-23T09:39:00;3.80;;;1.77;;
2488;SDS011;1255;48.716;9.124;2024-03-23T09:41:30;3.10;;;1.88;;
2488;SDS011;1255;48.716;9.124;2024-03-23T09:44:00;2.40;;;1.90;;
2488;SDS011;1255;48.716;9.124;2024-03-23T09:46:27;4.35;;;1.70;;
2488;SDS011;1255;48.716;9.124;2024-03-23T09:48:55;2.50;;;2.30;;
2488;SDS011;1255;48.716;9.124;2024-03-23T09:51:22;2.58;;;1.63;;
2488;SDS011;1255;48.716;9.124;2024-03-23T09:53:51;2.70;;;2.40;;
2488;SDS011;1255;48.716;9.124;2024-03-23T09:56:18;6.53;;;2.30;;
2488;SDS011;1255;48.716;9.124;2024-03-23T09:58:44;1.83;;;1.73;;
2488;SDS011;1255;48.716;9.124;2024-03-23T10:01:12;6.47;;;2.40;;
2488;SDS011;1255;48.716;9.124;2024-03-23T10:03:43;2.88;;;2.03;;
2488;SDS011;1255;48.716;9.124;2024-03-23T10:06:12;2.45;;;2.25;;
2488;SDS011;1255;48.716;9.124;2024-03-23T10:08:38;1.92;;;1.67;;
2488;SDS011;1255;48.716;9.124;2024-03-23T10:11:14;1.80;;;1.58;;
2488;SDS011;1255;48.716;9.124;2024-03-23T10:13:41;2.22;;;1.77;;
2488;SDS011;1255;48.716;9.124;2024-03-23T10:16:11;4.13;;;2.20;;
2488;SDS011;1255;48.716;9.124;2024-03-23T10:18:37;7.03;;;2.30;;
2488;SDS011;1255;48.716;9.124;2024-03-23T10:21:08;1.90;;;1.70;;
2488;SDS011;1255;48.716;9.124;2024-03-23T10:23:37;4.30;;;1.70;;
2488;SDS011;1255;48.716;9.124;2024-03-23T10:26:12;2.67;;;1.87;;
2488;SDS011;1255;48.716;9.124;2024-03-23T10:28:46;3.30;;;2.20;;
2488;SDS011;1255;48.716;9.124;2024-03-23T10:31:28;4.43;;;1.87;;
2488;SDS011;1255;48.716;9.124;2024-03-23T10:34:06;2.67;;;2.17;;
2488;SDS011;1255;48.716;9.124;2024-03-23T10:36:39;3.20;;;2.03;;
2488;SDS011;1255;48.716;9.124;2024-03-23T10:39:17;8.40;;;2.67;;
2488;SDS011;1255;48.716;9.124;2024-03-23T10:41:46;4.20;;;2.10;;
2488;SDS011;1255;48.716;9.124;2024-03-23T10:44:14;5.03;;;2.03;;
2488;SDS011;1255;48.716;9.124;2024-03-23T10:46:44;6.67;;;1.97;;
2488;SDS011;1255;48.716;9.124;2024-03-23T10:49:10;5.10;;;2.30;;
2488;SDS011;1255;48.716;9.124;2024-03-23T10:51:37;2.67;;;1.50;;
2488;SDS011;1255;48.716;9.124;2024-03-23T10:54:03;2.73;;;2.20;;
2488;SDS011;1255;48.716;9.124;2024-03-23T10:56:34;2.37;;;2.13;;
2488;SDS011;1255;48.716;9.124;2024-03-23T10:59:01;3.20;;;1.77;;
2488;SDS011;1255;48.716;9.124;2024-03-23T11:01:32;4.38;;;1.90;;
2488;SDS011;1255;48.716;9.124;2024-03-23T11:03:58;1.93;;;1.50;;
2488;SDS011;1255;48.716;9.124;2024-03-23T11:06:34;3.50;;;1.58;;
2488;SDS011;1255;48.716;9.124;2024-03-23T11:09:01;1.15;;;1.05;;
2488;SDS011;1255;48.716;9.124;2024-03-23T11:11:28;3.72;;;1.40;;
2488;SDS011;1255;48.716;9.124;2024-03-23T11:13:58;2.05;;;1.60;;
2488;SDS011;1255;48.716;9.124;2024-03-23T11:16:26;1.55;;;1.35;;
2488;SDS011;1255;48.716;9.124;2024-03-23T11:18:53;1.88;;;1.65;;
2488;SDS011;1255;48.716;9.124;2024-03-23T11:24:19;2.28;;;1.65;;
2488;SDS011;1255;48.716;9.124;2024-03-23T11:26:47;1.42;;;1.15;;
2488;SDS011;1255;48.716;9.124;2024-03-23T11:29:14;1.20;;;1.10;;
2488;SDS011;1255;48.716;9.124;2024-03-23T11:31:45;2.00;;;1.90;;
2488;SDS011;1255;48.716;9.124;2024-03-23T11:34:12;1.77;;;1.17;;
2488;SDS011;1255;48.716;9.124;2024-03-23T11:36:39;1.73;;;1.17;;
2488;SDS011;1255;48.716;9.124;2024-03-23T11:39:11;1.73;;;1.07;;
2488;SDS011;1255;48.716;9.124;2024-03-23T11:41:47;2.47;;;1.43;;
2488;SDS011;1255;48.716;9.124;2024-03-23T11:44:18;2.00;;;1.40;;
2488;SDS011;1255;48.716;9.124;2024-03-23T11:46:46;1.63;;;1.47;;
2488;SDS011;1255;48.716;9.124;2024-03-23T11:49:21;4.20;;;1.37;;
2488;SDS011;1255;48.716;9.124;2024-03-23T11:51:48;1.80;;;1.40;;
2488;SDS011;1255;48.716;9.124;2024-03-23T11:54:14;1.77;;;1.43;;
2488;SDS011;1255;48.716;9.124;2024-03-23T11:56:53;1.23;;;0.90;;
2488;SDS011;1255;48.716;9.124;2024-03-23T11:59:31;1.60;;;1.23;;
2488;SDS011;1255;48.716;9.124;2024-03-23T12:01:58;1.50;;;1.30;;
2488;SDS011;1255;48.716;9.124;2024-03-23T12:04:25;1.83;;;1.47;;
2488;SDS011;1255;48.716;9.124;2024-03-23T12:09:39;2.30;;;1.37;;
2488;SDS011;1255;48.716;9.124;2024-03-23T12:12:08;2.30;;;1.30;;
2488;SDS011;1255;48.716;9.124;2024-03-23T12:14:37;1.40;;;1.30;;
2488;SDS011;1255;48.716;9.124;2024-03-23T12:17:08;1.83;;;1.27;;
2488;SDS011;1255;48.716;9.124;2024-03-23T12:19:35;2.23;;;1.30;;
2488;SDS011;1255;48.716;9.124;2024-03-23T12:22:02;1.38;;;1.25;;
2488;SDS011;1255;48.716;9.124;2024-03-23T12:24:28;3.28;;;1.42;;
2488;SDS011;1255;48.716;9.124;2024-03-23T12:26:59;3.28;;;1.73;;
2488;SDS011;1255;48.716;9.124;2024-03-23T12:29:26;5.45;;;1.70;;
2488;SDS011;1255;48.716;9.124;2024-03-23T12:31:55;2.88;;;1.52;;
2488;SDS011;1255;48.716;9.124;2024-03-23T12:34:21;3.58;;;1.35;;
2488;SDS011;1255;48.716;9.124;2024-03-23T12:36:47;1.40;;;1.30;;
2488;SDS011;1255;48.716;9.124;2024-03-23T12:39:13;5.67;;;1.57;;
2488;SDS011;1255;48.716;9.124;2024-03-23T12:41:40;5.40;;;1.50;;
2488;SDS011;1255;48.716;9.124;2024-03-23T12:44:06;1.57;;;1.33;;
2488;SDS011;1255;48.716;9.124;2024-03-23T12:46:33;2.92;;;1.50;;
2488;SDS011;1255;48.716;9.124;2024-03-23T12:49:00;3.83;;;1.63;;
2488;SDS011;1255;48.716;9.124;2024-03-23T12:51:27;6.45;;;2.05;;
2488;SDS011;1255;48.716;9.124;2024-03-23T12:53:53;1.50;;;1.40;;
2488;SDS011;1255;48.716;9.124;2024-03-23T12:56:19;2.05;;;1.75;;
2488;SDS011;1255;48.716;9.124;2024-03-23T12:58:45;1.83;;;1.27;;
2488;SDS011;1255;48.716;9.124;2024-03-23T13:01:16;2.45;;;1.40;;
2488;SDS011;1255;48.716;9.124;2024-03-23T13:03:41;4.77;;;1.63;;
2488;SDS011;1255;48.716;9.124;2024-03-23T13:06:11;2.88;;;1.70;;
2488;SDS011;1255;48.716;9.124;2024-03-23T13:08:36;2.85;;;1.60;;
2488;SDS011;1255;48.716;9.124;2024-03-23T13:11:03;3.15;;;2.28;;
2488;SDS011;1255;48.716;9.124;2024-03-23T13:13:29;2.40;;;1.90;;
2488;SDS011;1255;48.716;9.124;2024-03-23T13:15:56;2.42;;;1.60;;
2488;SDS011;1255;48.716;9.124;2024-03-23T13:18:22;3.90;;;1.90;;
2488;SDS011;1255;48.716;9.124;2024-03-23T13:20:49;4.38;;;1.60;;
2488;SDS011;1255;48.716;9.124;2024-03-23T13:23:16;1.80;;;1.33;;
2488;SDS011;1255;48.716;9.124;2024-03-23T13:25:49;1.95;;;1.00;;
2488;SDS011;1255;48.716;9.124;2024-03-23T13:28:15;2.45;;;1.08;;
2488;SDS011;1255;48.716;9.124;2024-03-23T13:30:49;0.80;;;0.70;;
2488;SDS011;1255;48.716;9.124;2024-03-23T13:33:15;1.70;;;0.98;;
2488;SDS011;1255;48.716;9.124;2024-03-23T13:35:48;1.95;;;0.90;;
2488;SDS011;1255;48.716;9.124;2024-03-23T13:38:14;1.40;;;0.90;;
2488;SDS011;1255;48.716;9.124;2024-03-23T13:40:49;2.65;;;1.20;;
2488;SDS011;1255;48.716;9.124;2024-03-23T13:43:16;1.10;;;0.82;;
2488;SDS011;1255;48.716;9.124;2024-03-23T13:45:43;2.65;;;0.95;;
2488;SDS011;1255;48.716;9.124;2024-03-23T13:48:08;1.70;;;1.10;;
2488;SDS011;1255;48.716;9.124;2024-03-23T13:50:35;1.77;;;1.07;;
2488;SDS011;1255;48.716;9.124;2024-03-23T13:53:01;1.67;;;0.97;;
2488;SDS011;1255;48.716;9.124;2024-03-23T13:55:29;2.00;;;1.50;;
2488;SDS011;1255;48.716;9.124;2024-03-23T13:57:55;2.13;;;1.30;;
2488;SDS011;1255;48.716;9.124;2024-03-23T14:00:22;2.37;;;1.50;;
2488;SDS011;1255;48.716;9.124;2024-03-23T14:02:49;1.20;;;1.10;;
2488;SDS011;1255;48.716;9.124;2024-03-23T14:05:19;6.60;;;2.07;;
2488;SDS011;1255;48.716;9.124;2024-03-23T14:07:45;4.10;;;1.23;;
2488;SDS011;1255;48.716;9.124;2024-03-23T14:10:11;1.93;;;0.93;;
2488;SDS011;1255;48.716;9.124;2024-03-23T14:12:39;4.57;;;1.25;;
2488;SDS011;1255;48.716;9.124;2024-03-23T14:15:07;1.70;;;1.17;;
2488;SDS011;1255;48.716;9.124;2024-03-23T14:17:33;0.90;;;0.80;;
2488;SDS011;1255;48.716;9.124;2024-03-23T14:20:01;2.45;;;1.08;;
2488;SDS011;1255;48.716;9.124;2024-03-23T14:22:30;2.05;;;1.20;;
2488;SDS011;1255;48.716;9.124;2024-03-23T14:24:57;1.55;;;0.90;;
2488;SDS011;1255;48.716;9.124;2024-03-23T14:27:23;1.23;;;1.10;;
2488;SDS011;1255;48.716;9.124;2024-03-23T14:29:52;6.28;;;2.55;;
2488;SDS011;1255;48.716;9.124;2024-03-23T14:32:17;1.52;;;1.23;;
2488;SDS011;1255;48.716;9.124;2024-03-23T14:34:44;1.13;;;0.88;;
2488;SDS011;1255;48.716;9.124;2024-03-23T14:37:10;2.43;;;1.00;;
2488;SDS011;1255;48.716;9.124;2024-03-23T14:39:36;2.27;;;1.20;;
2488;SDS011;1255;48.716;9.124;2024-03-23T14:42:04;1.10;;;0.83;;
2488;SDS011;1255;48.716;9.124;2024-03-23T14:44:31;3.13;;;1.00;;
2488;SDS011;1255;48.716;9.124;2024-03-23T14:46:58;1.40;;;1.10;;
2488;SDS011;1255;48.716;9.124;2024-03-23T14:49:25;1.40;;;1.30;;
2488;SDS011;1255;48.716;9.124;2024-03-23T14:51:51;2.50;;;1.10;;
2488;SDS011;1255;48.716;9.124;2024-03-23T14:54:18;4.50;;;1.30;;
2488;SDS011;1255;48.716;9.124;2024-03-23T14:56:44;2.27;;;1.17;;
2488;SDS011;1255;48.716;9.124;2024-03-23T14:59:12;1.42;;;1.23;;
2488;SDS011;1255;48.716;9.124;2024-03-23T15:01:38;1.63;;;1.50;;
2488;SDS011;1255;48.716;9.124;2024-03-23T15:04:06;2.38;;;1.40;;
2488;SDS011;1255;48.716;9.124;2024-03-23T15:06:32;4.43;;;1.70;;
2488;SDS011;1255;48.716;9.124;2024-03-23T15:08:59;2.65;;;1.58;;
2488;SDS011;1255;48.716;9.124;2024-03-23T15:11:24;1.10;;;1.00;;
2488;SDS011;1255;48.716;9.124;2024-03-23T15:13:51;2.10;;;1.58;;
2488;SDS011;1255;48.716;9.124;2024-03-23T15:16:17;1.13;;;1.03;;
2488;SDS011;1255;48.716;9.124;2024-03-23T15:18:45;4.10;;;1.10;;
2488;SDS011;1255;48.716;9.124;2024-03-23T15:21:12;1.87;;;1.20;;
2488;SDS011;1255;48.716;9.124;2024-03-23T15:23:44;1.20;;;1.00;;
2488;SDS011;1255;48.716;9.124;2024-03-23T15:26:10;1.05;;;0.95;;
2488;SDS011;1255;48.716;9.124;2024-03-23T15:28:37;1.20;;;0.90;;
2488;SDS011;1255;48.716;9.124;2024-03-23T15:31:03;1.00;;;0.90;;
2488;SDS011;1255;48.716;9.124;2024-03-23T15:33:30;1.20;;;1.00;;
2488;SDS011;1255;48.716;9.124;2024-03-23T15:35:58;2.30;;;1.10;;
2488;SDS011;1255;48.716;9.124;2024-03-23T15:38:26;1.57;;;1.07;;
2488;SDS011;1255;48.716;9.124;2024-03-23T15:40:51;3.63;;;1.23;;
2488;SDS011;1255;48.716;9.124;2024-03-23T15:43:18;1.65;;;0.90;;
2488;SDS011;1255;48.716;9.124;2024-03-23T15:45:44;1.17;;;0.90;;
2488;SDS011;1255;48.716;9.124;2024-03-23T15:48:19;1.70;;;1.27;;
2488;SDS011;1255;48.716;9.124;2024-03-23T15:50:49;1.55;;;1.08;;
2488;SDS011;1255;48.716;9.124;2024-03-23T15:53:17;1.13;;;1.02;;
2488;SDS011;1255;48.716;9.124;2024-03-23T15:55:44;1.40;;;1.00;;
2488;SDS011;1255;48.716;9.124;2024-03-23T15:58:11;1.48;;;1.08;;
2488;SDS011;1255;48.716;9.124;2024-03-23T16:00:37;1.40;;;1.00;;
2488;SDS011;1255;48.716;9.124;2024-03-23T16:03:04;1.52;;;0.90;;
2488;SDS011;1255;48.716;9.124;2024-03-23T16:05:30;1.00;;;0.90;;
2488;SDS011;1255;48.716;9.124;2024-03-23T16:07:56;2.10;;;0.90;;
2488;SDS011;1255;48.716;9.124;2024-03-23T16:10:22;0.90;;;0.70;;
2488;SDS011;1255;48.716;9.124;2024-03-23T16:12:50;1.80;;;0.82;;